createdAt,value
2019-05-13T00:02:15.294Z,56.77
2019-05-13T00:04:44.931Z,56.71
2019-05-13T00:07:14.799Z,56.71
2019-05-13T00:09:44.399Z,56.78
2019-05-13T00:12:13.993Z,57.39
2019-05-13T00:14:43.655Z,57.47
2019-05-13T00:17:14.560Z,57.24
2019-05-13T00:19:44.419Z,57.25
2019-05-13T00:22:14.223Z,57.74
2019-05-13T00:24:44.413Z,58.64
2019-05-13T00:27:14.242Z,57.92
2019-05-13T00:29:44.472Z,57.64
2019-05-13T00:32:14.249Z,58.85
2019-05-13T00:34:44.545Z,58.59
2019-05-13T00:37:14.792Z,58.55
2019-05-13T00:39:44.487Z,58.91
2019-05-13T00:42:14.355Z,59.83
2019-05-13T00:44:44.477Z,59.95
2019-05-13T00:47:14.248Z,59.70
2019-05-13T00:49:43.856Z,59.83
2019-05-13T00:52:14.329Z,59.56
2019-05-13T00:54:44.279Z,59.17
2019-05-13T00:57:13.997Z,59.02
2019-05-13T00:59:44.295Z,58.94
2019-05-13T01:02:14.152Z,58.85
2019-05-13T01:04:44.241Z,58.88
2019-05-13T01:07:25.280Z,59.08
2019-05-13T01:09:45.284Z,59.54
2019-05-13T01:12:15.040Z,59.93
2019-05-13T01:14:44.682Z,59.96
2019-05-13T01:17:14.331Z,60.30
2019-05-13T01:19:44.087Z,59.71
2019-05-13T01:22:13.810Z,59.92
2019-05-13T01:24:44.191Z,59.86
2019-05-13T01:27:14.098Z,59.99
2019-05-13T01:29:43.785Z,60.48
2019-05-13T01:32:14.404Z,60.62
2019-05-13T01:34:44.446Z,60.36
2019-05-13T01:37:14.209Z,60.35
2019-05-13T01:39:43.912Z,60.37
2019-05-13T01:42:13.895Z,59.96
2019-05-13T01:44:43.893Z,60.15
2019-05-13T01:47:13.916Z,60.07
2019-05-13T01:49:44.097Z,60.51
2019-05-13T01:52:13.829Z,60.46
2019-05-13T01:54:44.221Z,60.63
2019-05-13T01:57:14.376Z,60.55
2019-05-13T01:59:44.028Z,60.50
2019-05-13T02:02:13.888Z,60.60
2019-05-13T02:04:43.956Z,60.99
2019-05-13T02:07:14.446Z,60.92
2019-05-13T02:09:44.641Z,60.74
2019-05-13T02:12:14.229Z,61.18
2019-05-13T02:14:44.448Z,61.25
2019-05-13T02:17:14.709Z,61.12
2019-05-13T02:19:44.491Z,61.34
2019-05-13T02:22:14.699Z,61.59
2019-05-13T02:24:44.768Z,61.75
2019-05-13T02:27:14.641Z,61.82
2019-05-13T02:29:44.230Z,62.10
2019-05-13T02:32:14.160Z,62.14
2019-05-13T02:34:44.130Z,62.49
2019-05-13T02:37:14.503Z,62.65
2019-05-13T02:39:44.126Z,62.95
2019-05-13T02:42:13.907Z,63.07
2019-05-13T02:44:43.879Z,63.42
2019-05-13T02:47:13.790Z,63.73
2019-05-13T02:49:43.438Z,63.45
2019-05-13T02:52:13.498Z,63.27
2019-05-13T02:54:43.328Z,63.20
2019-05-13T02:57:13.010Z,63.29
2019-05-13T02:59:42.867Z,63.18
2019-05-13T03:02:12.722Z,63.46
2019-05-13T03:04:43.391Z,63.31
2019-05-13T03:07:13.418Z,63.50
2019-05-13T03:09:43.158Z,63.63
2019-05-13T03:12:13.322Z,63.48
2019-05-13T03:14:47.912Z,63.41
2019-05-13T03:17:22.020Z,63.38
2019-05-13T03:19:53.100Z,63.06
2019-05-13T03:22:22.590Z,62.94
2019-05-13T03:24:52.711Z,63.03
2019-05-13T03:27:25.077Z,63.15
2019-05-13T03:29:54.057Z,63.31
2019-05-13T03:32:26.104Z,63.43
2019-05-13T03:34:56.836Z,63.42
2019-05-13T03:37:28.019Z,63.63
2019-05-13T03:40:03.022Z,63.67
2019-05-13T03:42:33.600Z,63.72
2019-05-13T03:45:05.806Z,63.74
2019-05-13T03:47:37.498Z,64.00
2019-05-13T03:50:08.128Z,63.86
2019-05-13T03:52:38.564Z,63.57
2019-05-13T03:55:09.016Z,63.58
2019-05-13T03:57:42.372Z,63.66
2019-05-13T04:00:13.154Z,63.89
2019-05-13T04:02:43.056Z,64.09
2019-05-13T04:05:13.796Z,64.13
2019-05-13T04:07:44.036Z,63.95
2019-05-13T04:10:14.655Z,64.42
2019-05-13T04:12:45.290Z,64.06
2019-05-13T04:15:15.715Z,64.19
2019-05-13T04:17:45.760Z,64.51
2019-05-13T04:20:16.290Z,65.08
2019-05-13T04:22:46.892Z,64.91
2019-05-13T04:25:17.176Z,64.71
2019-05-13T04:27:47.738Z,64.87
2019-05-13T04:30:18.091Z,64.86
2019-05-13T04:32:48.760Z,65.45
2019-05-13T04:35:19.099Z,65.06
2019-05-13T04:37:52.648Z,64.91
2019-05-13T04:40:23.266Z,64.64
2019-05-13T04:42:54.090Z,64.58
2019-05-13T04:45:24.448Z,64.39
2019-05-13T04:47:54.810Z,64.35
2019-05-13T04:50:25.339Z,64.02
2019-05-13T04:52:55.665Z,64.25
2019-05-13T04:55:25.858Z,63.65
2019-05-13T04:57:56.282Z,63.73
2019-05-13T05:01:01.995Z,63.52
2019-05-13T05:03:46.397Z,63.52
2019-05-13T05:06:45.163Z,62.99
2019-05-13T05:09:42.908Z,63.27
2019-05-13T05:12:26.740Z,62.88
2019-05-13T05:15:25.277Z,62.27
2019-05-13T05:18:28.386Z,62.73
2019-05-13T05:21:12.004Z,65.82
2019-05-13T05:24:18.513Z,65.40
2019-05-13T05:27:15.647Z,60.67
2019-05-13T05:30:24.340Z,60.24
2019-05-13T05:33:42.513Z,59.64
2019-05-13T05:36:48.700Z,58.18
2019-05-13T05:39:27.167Z,58.04
2019-05-13T05:42:02.004Z,57.04
2019-05-13T05:44:32.844Z,55.46
2019-05-13T05:47:04.883Z,56.12
2019-05-13T05:49:35.415Z,55.99
2019-05-13T05:52:08.934Z,55.16
2019-05-13T05:54:42.204Z,56.73
2019-05-13T05:57:12.874Z,57.08
2019-05-13T05:59:43.270Z,55.57
2019-05-13T06:02:13.644Z,56.60
2019-05-13T06:04:45.689Z,54.98
2019-05-13T06:07:17.127Z,54.67
2019-05-13T06:09:47.804Z,54.04
2019-05-13T06:12:18.528Z,54.69
2019-05-13T06:14:52.232Z,54.57
2019-05-13T06:17:21.915Z,53.76
2019-05-13T06:19:52.431Z,54.35
2019-05-13T06:22:22.760Z,54.37
2019-05-13T06:24:53.140Z,54.49
2019-05-13T06:27:24.032Z,53.71
2019-05-13T06:29:54.447Z,53.88
2019-05-13T06:32:26.402Z,54.04
2019-05-13T06:34:57.136Z,53.36
2019-05-13T06:37:27.167Z,53.32
2019-05-13T06:39:57.987Z,53.56
2019-05-13T06:42:28.858Z,52.78
2019-05-13T06:45:01.730Z,51.42
2019-05-13T06:47:32.527Z,51.78
2019-05-13T06:50:03.593Z,51.65
2019-05-13T06:52:34.436Z,51.12
2019-05-13T06:55:06.284Z,51.47
2019-05-13T06:57:36.596Z,50.83
2019-05-13T07:00:08.874Z,50.76
2019-05-13T07:02:42.541Z,50.66
2019-05-13T07:05:12.180Z,51.00
2019-05-13T07:07:42.948Z,50.05
2019-05-13T07:10:13.701Z,49.61
2019-05-13T07:12:47.016Z,49.66
2019-05-13T07:15:17.873Z,50.15
2019-05-13T07:17:48.689Z,48.98
2019-05-13T07:20:22.677Z,48.35
2019-05-13T07:22:53.299Z,48.35
2019-05-13T07:25:24.448Z,48.38
2019-05-13T07:27:55.243Z,47.67
2019-05-13T07:30:45.455Z,47.76
2019-05-13T07:33:16.170Z,46.46
2019-05-13T07:35:46.999Z,46.73
2019-05-13T07:38:18.641Z,45.88
2019-05-13T07:40:52.264Z,45.79
2019-05-13T07:43:24.397Z,45.00
2019-05-13T07:45:53.791Z,44.57
2019-05-13T07:48:27.902Z,43.74
2019-05-13T07:51:00.728Z,43.59
2019-05-13T07:53:29.175Z,42.33
2019-05-13T07:56:01.988Z,43.66
2019-05-13T07:58:36.506Z,44.00
2019-05-13T08:01:03.520Z,43.94
2019-05-13T08:03:35.188Z,42.85
2019-05-13T08:06:05.281Z,42.70
2019-05-13T08:08:36.147Z,41.70
2019-05-13T08:11:07.044Z,40.87
2019-05-13T08:13:37.562Z,40.01
2019-05-13T08:16:07.752Z,40.43
2019-05-13T08:18:38.127Z,40.60
2019-05-13T08:21:08.959Z,41.05
2019-05-13T08:23:41.647Z,39.92
2019-05-13T08:26:12.437Z,39.35
2019-05-13T08:28:57.025Z,39.86
2019-05-13T08:31:14.607Z,39.98
2019-05-13T08:33:44.927Z,38.32
2019-05-13T08:36:15.201Z,39.05
2019-05-13T08:38:45.407Z,38.92
2019-05-13T08:41:19.441Z,39.77
2019-05-13T08:43:49.055Z,39.75
2019-05-13T08:46:21.876Z,39.11
2019-05-13T08:48:52.002Z,38.19
2019-05-13T08:51:22.651Z,38.96
2019-05-13T08:53:53.231Z,39.03
2019-05-13T08:56:23.687Z,38.20
2019-05-13T08:58:54.325Z,38.52
2019-05-13T09:01:25.138Z,37.38
2019-05-13T09:03:55.656Z,37.34
2019-05-13T09:06:26.471Z,37.18
2019-05-13T09:08:57.081Z,37.50
2019-05-13T09:11:27.422Z,36.77
2019-05-13T09:13:58.071Z,36.50
2019-05-13T09:16:31.822Z,37.18
2019-05-13T09:19:03.729Z,35.57
2019-05-13T09:21:32.552Z,35.48
2019-05-13T09:24:03.320Z,35.56
2019-05-13T09:26:33.922Z,35.23
2019-05-13T09:29:04.216Z,34.98
2019-05-13T09:31:34.691Z,36.47
2019-05-13T09:34:04.944Z,35.94
2019-05-13T09:36:35.160Z,35.39
2019-05-13T09:39:07.850Z,35.42
2019-05-13T09:41:41.114Z,35.48
2019-05-13T09:44:12.121Z,33.98
2019-05-13T09:46:42.495Z,32.99
2019-05-13T09:49:19.639Z,33.44
2019-05-13T09:51:45.012Z,32.87
2019-05-13T09:54:15.208Z,34.15
2019-05-13T09:56:45.527Z,33.62
2019-05-13T09:59:15.699Z,32.35
2019-05-13T10:01:45.794Z,32.38
2019-05-13T10:04:16.270Z,31.95
2019-05-13T10:06:47.009Z,31.41
2019-05-13T10:09:17.585Z,32.88
2019-05-13T10:11:47.746Z,31.95
2019-05-13T10:14:18.009Z,30.79
2019-05-13T10:16:48.406Z,30.90
2019-05-13T10:19:21.259Z,30.84
2019-05-13T10:21:52.457Z,30.78
2019-05-13T10:24:23.017Z,30.21
2019-05-13T10:26:54.422Z,30.52
2019-05-13T10:29:25.148Z,30.59
2019-05-13T10:31:55.350Z,30.50
2019-05-13T10:34:25.869Z,30.54
2019-05-13T10:36:56.816Z,30.02
2019-05-13T10:39:27.172Z,30.67
2019-05-13T10:41:57.515Z,29.52
2019-05-13T10:44:28.010Z,29.44
2019-05-13T10:46:58.305Z,30.32
2019-05-13T10:49:28.789Z,28.23
2019-05-13T10:51:58.976Z,29.10
2019-05-13T10:54:29.334Z,28.82
2019-05-13T10:57:00.769Z,28.54
2019-05-13T10:59:31.914Z,28.19
2019-05-13T11:02:02.388Z,28.02
2019-05-13T11:04:33.000Z,28.70
2019-05-13T11:07:03.476Z,26.86
2019-05-13T11:09:33.768Z,27.13
2019-05-13T11:12:04.265Z,26.80
2019-05-13T11:14:34.510Z,27.93
2019-05-13T11:17:04.854Z,27.78
2019-05-13T11:19:37.129Z,27.51
2019-05-13T11:22:07.345Z,27.40
2019-05-13T11:24:37.849Z,26.93
2019-05-13T11:27:08.173Z,28.20
2019-05-13T11:29:38.480Z,27.15
2019-05-13T11:32:08.879Z,25.87
2019-05-13T11:34:41.447Z,25.35
2019-05-13T11:37:12.343Z,26.23
2019-05-13T11:39:42.802Z,25.63
2019-05-13T11:42:13.801Z,25.30
2019-05-13T11:44:44.285Z,25.59
2019-05-13T11:47:14.568Z,24.53
2019-05-13T11:49:45.019Z,25.88
2019-05-13T11:52:15.749Z,24.09
2019-05-13T11:54:46.101Z,24.33
2019-05-13T11:57:16.579Z,24.62
2019-05-13T11:59:47.103Z,24.88
2019-05-13T12:02:18.058Z,23.39
2019-05-13T12:04:48.191Z,24.05
2019-05-13T12:07:18.563Z,24.13
2019-05-13T12:09:49.036Z,23.94
2019-05-13T12:12:19.190Z,24.01
2019-05-13T12:15:20.982Z,22.84
2019-05-13T12:17:22.499Z,23.34
2019-05-13T12:19:54.222Z,23.42
2019-05-13T12:22:25.258Z,22.39
2019-05-13T12:24:55.553Z,23.09
2019-05-13T12:27:26.111Z,23.27
2019-05-13T12:29:56.496Z,23.12
2019-05-13T12:32:28.125Z,23.86
2019-05-13T12:34:58.516Z,23.41
2019-05-13T12:37:28.782Z,23.28
2019-05-13T12:39:59.199Z,22.31
2019-05-13T12:42:29.380Z,22.65
2019-05-13T12:45:08.125Z,21.81
2019-05-13T12:47:31.649Z,22.53
2019-05-13T12:50:03.246Z,22.11
2019-05-13T12:52:34.611Z,22.74
2019-05-13T12:55:05.645Z,23.79
2019-05-13T12:57:36.030Z,22.29
2019-05-13T13:00:08.451Z,21.48
2019-05-13T13:02:38.715Z,21.27
2019-05-13T13:05:14.149Z,21.84
2019-05-13T13:07:42.273Z,21.33
2019-05-13T13:10:15.495Z,21.89
2019-05-13T13:12:45.703Z,21.40
2019-05-13T13:17:49.089Z,21.66
2019-05-13T13:20:23.973Z,20.77
2019-05-13T13:22:50.896Z,21.29
2019-05-13T13:25:23.845Z,20.79
2019-05-13T13:30:25.179Z,20.42
2019-05-13T13:32:55.346Z,20.78
2019-05-13T13:35:25.303Z,19.86
2019-05-13T13:37:55.623Z,20.66
2019-05-13T13:40:29.649Z,20.19
2019-05-13T13:42:57.813Z,19.82
2019-05-13T13:45:28.547Z,20.08
2019-05-13T13:48:03.681Z,19.77
2019-05-13T13:50:33.559Z,19.31
2019-05-13T13:53:03.918Z,19.99
2019-05-13T13:55:34.214Z,19.44
2019-05-13T13:58:04.947Z,19.68
2019-05-13T14:00:47.440Z,19.53
2019-05-13T14:03:07.731Z,19.15
2019-05-13T14:05:38.076Z,18.16
2019-05-13T14:07:08.010Z,21.64
2019-05-13T14:07:09.285Z,21.22
2019-05-13T14:08:08.075Z,18.49
2019-05-13T14:10:38.383Z,19.04
2019-05-13T14:13:08.909Z,18.00
2019-05-13T14:15:41.547Z,18.72
2019-05-13T14:18:11.421Z,18.17
2019-05-13T14:20:42.795Z,17.78
2019-05-13T14:23:13.526Z,17.96
2019-05-13T14:25:43.685Z,16.78
2019-05-13T14:28:17.481Z,17.29
2019-05-13T14:30:46.319Z,17.99
2019-05-13T14:33:17.866Z,17.20
2019-05-13T14:35:48.103Z,17.68
2019-05-13T14:38:18.753Z,16.87
2019-05-13T14:40:51.695Z,16.75
2019-05-13T14:43:22.920Z,16.93
2019-05-13T14:45:52.316Z,17.02
2019-05-13T14:48:22.754Z,16.38
2019-05-13T14:50:53.013Z,16.41
2019-05-13T14:53:23.338Z,16.55
2019-05-13T14:55:53.873Z,17.58
2019-05-13T14:58:25.073Z,16.40
2019-05-13T15:01:11.157Z,16.24
2019-05-13T15:03:27.096Z,15.83
2019-05-13T15:05:57.189Z,16.16
2019-05-13T15:08:27.321Z,16.30
2019-05-13T15:10:57.533Z,16.29
2019-05-13T15:13:27.764Z,16.31
2019-05-13T15:15:58.032Z,15.39
2019-05-13T15:18:32.237Z,15.61
2019-05-13T15:21:02.016Z,15.83
2019-05-13T15:23:32.261Z,16.08
2019-05-13T15:26:02.600Z,15.65
2019-05-13T15:28:32.767Z,16.07
2019-05-13T15:31:03.097Z,16.34
2019-05-13T15:33:34.855Z,15.00
2019-05-13T15:36:05.102Z,15.08
2019-05-13T15:38:35.447Z,14.98
2019-05-13T15:41:05.589Z,15.39
2019-05-13T15:43:35.950Z,15.61
2019-05-13T15:46:08.372Z,15.63
2019-05-13T15:48:42.040Z,15.23
2019-05-13T15:51:11.527Z,14.64
2019-05-13T15:53:43.718Z,15.50
2019-05-13T15:56:12.815Z,15.50
2019-05-13T15:58:44.518Z,15.13
2019-05-13T16:01:14.108Z,14.00
2019-05-13T16:03:44.263Z,14.39
2019-05-13T16:06:14.413Z,14.50
2019-05-13T16:08:44.363Z,15.02
2019-05-13T16:11:14.542Z,15.24
2019-05-13T16:13:45.153Z,15.43
2019-05-13T16:16:15.449Z,15.25
2019-05-13T16:18:45.668Z,15.78
2019-05-13T16:21:15.956Z,15.91
2019-05-13T16:23:46.092Z,14.89
2019-05-13T16:26:16.273Z,14.88
2019-05-13T16:28:46.484Z,15.38
2019-05-13T16:31:16.571Z,14.45
2019-05-13T16:33:46.926Z,14.24
2019-05-13T16:36:17.100Z,14.41
2019-05-13T16:38:47.418Z,15.07
2019-05-13T16:41:17.895Z,15.47
2019-05-13T16:43:49.670Z,14.63
2019-05-13T16:46:21.442Z,14.41
2019-05-13T16:48:50.860Z,14.64
2019-05-13T16:51:21.620Z,14.40
2019-05-13T16:53:52.443Z,14.09
2019-05-13T16:56:27.738Z,14.85
2019-05-13T16:58:54.637Z,14.50
2019-05-13T17:01:24.886Z,14.94
2019-05-13T17:03:55.182Z,15.01
2019-05-13T17:06:25.397Z,14.69
2019-05-13T17:08:55.552Z,14.65
2019-05-13T17:11:25.901Z,14.84
2019-05-13T17:13:56.134Z,15.18
2019-05-13T17:16:26.318Z,15.67
2019-05-13T17:18:56.622Z,16.35
2019-05-13T17:21:28.646Z,16.98
2019-05-13T17:23:58.628Z,17.24
2019-05-13T17:26:29.073Z,17.35
2019-05-13T17:29:01.428Z,17.48
2019-05-13T17:31:32.553Z,17.84
2019-05-13T17:34:02.770Z,18.71
2019-05-13T17:36:33.305Z,19.17
2019-05-13T17:39:05.141Z,19.44
2019-05-13T17:41:35.376Z,19.52
2019-05-13T17:44:06.187Z,19.73
2019-05-13T17:46:36.461Z,20.37
2019-05-13T17:49:06.751Z,20.83
2019-05-13T17:51:37.246Z,21.29
2019-05-13T17:54:07.378Z,22.11
2019-05-13T17:56:37.857Z,21.76
2019-05-13T17:59:08.114Z,22.06
2019-05-13T18:01:38.309Z,22.10
2019-05-13T18:04:08.502Z,22.58
2019-05-13T18:06:38.904Z,22.34
2019-05-13T18:09:11.956Z,23.14
2019-05-13T18:11:42.025Z,22.69
2019-05-13T18:14:12.079Z,23.16
2019-05-13T18:16:42.280Z,23.03
2019-05-13T18:19:12.554Z,23.58
2019-05-13T18:21:43.009Z,23.49
2019-05-13T18:24:13.399Z,23.87
2019-05-13T18:26:43.588Z,24.00
2019-05-13T18:29:14.189Z,24.28
2019-05-13T18:31:44.584Z,24.47
2019-05-13T18:34:15.035Z,24.68
2019-05-13T18:36:45.646Z,24.87
2019-05-13T18:39:15.916Z,25.19
2019-05-13T18:41:46.279Z,25.38
2019-05-13T18:44:16.721Z,25.34
2019-05-13T18:46:47.051Z,25.47
2019-05-13T18:49:17.392Z,25.78
2019-05-13T18:51:47.497Z,26.33
2019-05-13T18:54:17.656Z,26.26
2019-05-13T18:56:48.028Z,26.37
2019-05-13T18:59:18.622Z,26.62
2019-05-13T19:01:52.679Z,26.92
2019-05-13T19:04:21.844Z,27.41
2019-05-13T19:06:52.349Z,27.16
2019-05-13T19:09:22.858Z,28.16
2019-05-13T19:11:53.097Z,29.15
2019-05-13T19:14:23.645Z,29.19
2019-05-13T19:16:53.999Z,30.13
2019-05-13T19:19:24.150Z,29.78
2019-05-13T19:21:54.308Z,30.39
2019-05-13T19:24:24.920Z,30.64
2019-05-13T19:26:55.075Z,31.00
2019-05-13T19:29:26.209Z,31.82
2019-05-13T19:31:56.108Z,32.19
2019-05-13T19:34:26.066Z,33.16
2019-05-13T19:36:56.482Z,34.93
2019-05-13T19:39:26.961Z,34.69
2019-05-13T19:41:57.116Z,34.56
2019-05-13T19:44:27.244Z,34.14
2019-05-13T19:46:57.091Z,34.33
2019-05-13T19:49:32.145Z,34.41
2019-05-13T19:51:58.433Z,34.76
2019-05-13T19:54:28.254Z,36.51
2019-05-13T19:56:58.328Z,35.52
2019-05-13T19:59:28.351Z,37.20
2019-05-13T20:01:58.001Z,38.56
2019-05-13T20:04:27.734Z,39.55
2019-05-13T20:06:57.506Z,39.43
2019-05-13T20:09:27.168Z,39.52
2019-05-13T20:11:57.166Z,40.06
2019-05-13T20:14:27.063Z,39.10
2019-05-13T20:16:56.812Z,39.01
2019-05-13T20:19:26.483Z,38.11
2019-05-13T20:21:56.435Z,39.40
2019-05-13T20:24:26.114Z,38.13
2019-05-13T20:26:55.800Z,38.15
2019-05-13T20:29:25.648Z,38.43
2019-05-13T20:31:55.577Z,39.05
2019-05-13T20:34:25.539Z,39.05
2019-05-13T20:36:55.185Z,39.31
2019-05-13T20:39:25.505Z,39.09
2019-05-13T20:41:55.821Z,38.97
2019-05-13T20:44:25.800Z,38.89
2019-05-13T20:46:55.718Z,38.48
2019-05-13T20:49:25.724Z,38.74
2019-05-13T20:51:55.533Z,38.72
2019-05-13T20:54:25.309Z,38.58
2019-05-13T20:56:54.927Z,38.53
2019-05-13T20:59:24.636Z,38.28
2019-05-13T21:01:54.378Z,38.37
2019-05-13T21:04:24.093Z,38.56
2019-05-13T21:06:54.088Z,39.03
2019-05-13T21:09:23.724Z,39.96
2019-05-13T21:11:53.529Z,39.62
2019-05-13T21:14:23.404Z,39.75
2019-05-13T21:16:53.775Z,39.28
2019-05-13T21:19:24.015Z,39.78
2019-05-13T21:21:53.714Z,39.66
2019-05-13T21:24:23.346Z,39.44
2019-05-13T21:26:53.274Z,39.64
2019-05-13T21:29:23.415Z,40.45
2019-05-13T21:31:53.835Z,40.09
2019-05-13T21:34:23.555Z,40.58
2019-05-13T21:36:54.955Z,41.29
2019-05-13T21:39:24.962Z,40.69
2019-05-13T21:41:54.786Z,40.75
2019-05-13T21:44:24.543Z,40.83
2019-05-13T21:46:54.408Z,40.82
2019-05-13T21:49:24.191Z,41.36
2019-05-13T21:51:53.991Z,41.50
2019-05-13T21:54:23.857Z,41.37
2019-05-13T21:56:53.738Z,41.75
2019-05-13T21:59:23.412Z,41.85
2019-05-13T22:01:53.833Z,41.83
2019-05-13T22:04:23.700Z,42.30
2019-05-13T22:06:53.447Z,42.53
2019-05-13T22:09:23.356Z,44.12
2019-05-13T22:11:53.735Z,43.31
2019-05-13T22:14:23.554Z,43.37
2019-05-13T22:16:56.478Z,43.24
2019-05-13T22:19:25.123Z,43.32
2019-05-13T22:21:54.924Z,43.20
2019-05-13T22:24:25.181Z,43.43
2019-05-13T22:26:54.942Z,43.13
2019-05-13T22:29:24.503Z,43.55
2019-05-13T22:31:54.293Z,43.50
2019-05-13T22:34:23.989Z,43.45
2019-05-13T22:36:53.723Z,43.99
2019-05-13T22:39:23.386Z,44.30
2019-05-13T22:41:53.322Z,44.35
2019-05-13T22:44:23.159Z,45.26
2019-05-13T22:46:53.194Z,45.60
2019-05-13T22:49:23.065Z,45.46
2019-05-13T22:51:53.101Z,45.23
2019-05-13T22:54:23.036Z,45.06
2019-05-13T22:56:52.829Z,45.37
2019-05-13T22:59:22.762Z,45.23
2019-05-13T23:01:52.552Z,45.63
2019-05-13T23:04:22.718Z,45.84
2019-05-13T23:06:52.620Z,45.55
2019-05-13T23:09:22.764Z,45.38
2019-05-13T23:11:52.519Z,45.27
2019-05-13T23:14:22.390Z,45.48
2019-05-13T23:16:51.971Z,46.05
2019-05-13T23:19:21.861Z,45.62
2019-05-13T23:21:51.751Z,46.17
2019-05-13T23:24:22.916Z,45.58
2019-05-13T23:26:52.562Z,45.42
2019-05-13T23:29:22.266Z,45.09
2019-05-13T23:31:52.140Z,44.20
2019-05-13T23:34:22.409Z,44.59
2019-05-13T23:36:52.319Z,44.44
2019-05-13T23:39:22.113Z,44.88
2019-05-13T23:41:52.274Z,44.88
2019-05-13T23:44:27.808Z,45.38
2019-05-13T23:46:53.514Z,45.23
2019-05-13T23:49:23.250Z,45.40
2019-05-13T23:51:52.826Z,45.02
2019-05-13T23:54:22.534Z,45.22
2019-05-13T23:56:52.281Z,44.62
2019-05-13T23:59:22.009Z,44.53
